首页
METAR-TAF:

METAR-TAF

机场 :

Río Hato, 巴拿马

纬度: 08-22-33N, 经度: 080-07-40W, 海拔: 32米

当前天气观测

该预报发布于5小时和7分钟前的21:00 UTC
风速8节,风向东转东南
温度 30°C
湿度 75%
气压 1009 hPa
能见度10公里或以上
散云层高于1800英尺, 积雨云.

METAR: MPSM 242100Z 11008KT 9999 SCT018CB 30/25 Q1009

时间: 21:07 (02:07 UTC)

预报

该预报发布于3小时和7分钟前的23:00 UTC
预报有效从25日的 00点(UTC)到 26日的 06点(UTC)
风速7节,风向东南
能见度10公里或以上
散云层高于1800英尺
几率 40%
从 25日的 01点(UTC)到 25日的 05点(UTC)
能見度: 5000
散云层高于500英尺
散云层高于1600英尺, 积雨云.
多云层高于8000英尺
雷暴, 雨
短暂存在
从 25日的 19点(UTC)到 25日的 23点(UTC)
能見度: 5000
散云层高于1500英尺, 积雨云.
多云层高于8000英尺
雷暴, 雨
短暂存在
从 26日的 00点(UTC)到 26日的 01点(UTC)

TAF: MPSM 242300Z 2500/2606 14007KT 9999 SCT018 PROB40 2501/2505 5000 TSRA SCT005 SCT016CB BKN080 TEMPO 2519/2523 5000 TSRA SCT015CB BKN080 TEMPO 2600/2601 NSW

超过4000个机场的气象观测和天气预报(METAR&TAF报告)。

可查询的气象台以黄色和红色小点在地图上表示。

将鼠标移到小点上方,可查看气象台名称。

然后点击查看天气观测和预报。

如需切换地图:点击带黑十字的绿色按钮放大地图;点击带横线的绿色按钮缩小地图;或者点击绿色箭头查看邻近地区的地图。


METAR-TAF: